sensor_id;sensor_type;location;lat;lon;timestamp;P1;durP1;ratioP1;P2;durP2;ratioP2
19171;SDS011;9718;52.200;21.052;2022-09-06T00:00:25;3.67;;;1.80;;
19171;SDS011;9718;52.200;21.052;2022-09-06T00:02:54;2.10;;;1.70;;
19171;SDS011;9718;52.200;21.052;2022-09-06T00:05:23;5.77;;;2.20;;
19171;SDS011;9718;52.200;21.052;2022-09-06T00:07:50;4.77;;;1.83;;
19171;SDS011;9718;52.200;21.052;2022-09-06T00:10:17;2.90;;;1.57;;
19171;SDS011;9718;52.200;21.052;2022-09-06T00:12:44;3.37;;;1.70;;
19171;SDS011;9718;52.200;21.052;2022-09-06T00:15:13;5.87;;;1.87;;
19171;SDS011;9718;52.200;21.052;2022-09-06T00:17:40;2.87;;;1.27;;
19171;SDS011;9718;52.200;21.052;2022-09-06T00:20:07;2.87;;;1.70;;
19171;SDS011;9718;52.200;21.052;2022-09-06T00:22:35;5.50;;;1.97;;
19171;SDS011;9718;52.200;21.052;2022-09-06T00:25:03;6.73;;;2.00;;
19171;SDS011;9718;52.200;21.052;2022-09-06T00:27:31;3.50;;;1.70;;
19171;SDS011;9718;52.200;21.052;2022-09-06T00:29:59;5.87;;;1.70;;
19171;SDS011;9718;52.200;21.052;2022-09-06T00:32:26;5.67;;;1.73;;
19171;SDS011;9718;52.200;21.052;2022-09-06T00:34:53;4.50;;;2.00;;
19171;SDS011;9718;52.200;21.052;2022-09-06T00:37:20;6.00;;;2.00;;
19171;SDS011;9718;52.200;21.052;2022-09-06T00:39:47;2.50;;;1.53;;
19171;SDS011;9718;52.200;21.052;2022-09-06T00:42:14;2.40;;;1.43;;
19171;SDS011;9718;52.200;21.052;2022-09-06T00:44:42;4.50;;;1.80;;
19171;SDS011;9718;52.200;21.052;2022-09-06T00:47:09;2.43;;;1.40;;
19171;SDS011;9718;52.200;21.052;2022-09-06T00:49:38;2.63;;;1.80;;
19171;SDS011;9718;52.200;21.052;2022-09-06T00:52:10;3.73;;;2.00;;
19171;SDS011;9718;52.200;21.052;2022-09-06T00:54:40;3.40;;;1.77;;
19171;SDS011;9718;52.200;21.052;2022-09-06T00:57:08;3.50;;;1.90;;
19171;SDS011;9718;52.200;21.052;2022-09-06T00:59:36;5.23;;;1.80;;
19171;SDS011;9718;52.200;21.052;2022-09-06T01:02:04;3.33;;;1.97;;
19171;SDS011;9718;52.200;21.052;2022-09-06T01:04:35;3.13;;;1.50;;
19171;SDS011;9718;52.200;21.052;2022-09-06T01:07:06;2.53;;;1.47;;
19171;SDS011;9718;52.200;21.052;2022-09-06T01:12:36;3.37;;;1.67;;
19171;SDS011;9718;52.200;21.052;2022-09-06T01:29:15;4.93;;;1.63;;
19171;SDS011;9718;52.200;21.052;2022-09-06T01:31:59;5.70;;;1.40;;
19171;SDS011;9718;52.200;21.052;2022-09-06T01:34:38;4.00;;;1.57;;
19171;SDS011;9718;52.200;21.052;2022-09-06T01:37:11;3.60;;;1.80;;
19171;SDS011;9718;52.200;21.052;2022-09-06T01:39:41;2.40;;;1.20;;
19171;SDS011;9718;52.200;21.052;2022-09-06T01:42:11;3.07;;;1.37;;
19171;SDS011;9718;52.200;21.052;2022-09-06T01:44:42;5.03;;;1.97;;
19171;SDS011;9718;52.200;21.052;2022-09-06T01:55:29;6.53;;;1.90;;
19171;SDS011;9718;52.200;21.052;2022-09-06T02:00:38;3.83;;;1.67;;
19171;SDS011;9718;52.200;21.052;2022-09-06T02:03:30;3.87;;;1.83;;
19171;SDS011;9718;52.200;21.052;2022-09-06T02:06:10;7.40;;;2.30;;
19171;SDS011;9718;52.200;21.052;2022-09-06T02:08:47;3.83;;;1.63;;
19171;SDS011;9718;52.200;21.052;2022-09-06T02:11:18;4.87;;;1.77;;
19171;SDS011;9718;52.200;21.052;2022-09-06T02:16:22;5.37;;;1.77;;
19171;SDS011;9718;52.200;21.052;2022-09-06T02:18:53;4.60;;;2.10;;
19171;SDS011;9718;52.200;21.052;2022-09-06T02:21:27;6.37;;;1.90;;
19171;SDS011;9718;52.200;21.052;2022-09-06T02:23:59;3.30;;;1.60;;
19171;SDS011;9718;52.200;21.052;2022-09-06T02:26:31;2.90;;;1.60;;
19171;SDS011;9718;52.200;21.052;2022-09-06T02:29:02;4.47;;;1.77;;
19171;SDS011;9718;52.200;21.052;2022-09-06T02:31:30;3.70;;;1.70;;
19171;SDS011;9718;52.200;21.052;2022-09-06T02:34:02;4.17;;;1.60;;
19171;SDS011;9718;52.200;21.052;2022-09-06T02:36:30;5.27;;;2.10;;
19171;SDS011;9718;52.200;21.052;2022-09-06T02:38:58;4.70;;;2.10;;
19171;SDS011;9718;52.200;21.052;2022-09-06T02:41:27;5.30;;;2.13;;
19171;SDS011;9718;52.200;21.052;2022-09-06T02:43:56;3.10;;;1.67;;
19171;SDS011;9718;52.200;21.052;2022-09-06T02:46:23;7.67;;;1.80;;
19171;SDS011;9718;52.200;21.052;2022-09-06T02:48:50;4.40;;;1.73;;
19171;SDS011;9718;52.200;21.052;2022-09-06T02:51:17;3.90;;;1.97;;
19171;SDS011;9718;52.200;21.052;2022-09-06T02:53:45;6.53;;;1.87;;
19171;SDS011;9718;52.200;21.052;2022-09-06T02:56:12;6.60;;;2.03;;
19171;SDS011;9718;52.200;21.052;2022-09-06T02:58:40;3.40;;;1.70;;
19171;SDS011;9718;52.200;21.052;2022-09-06T03:01:07;4.70;;;2.00;;
19171;SDS011;9718;52.200;21.052;2022-09-06T03:03:34;4.73;;;1.70;;
19171;SDS011;9718;52.200;21.052;2022-09-06T03:06:01;2.37;;;1.40;;
19171;SDS011;9718;52.200;21.052;2022-09-06T03:08:28;4.27;;;1.70;;
19171;SDS011;9718;52.200;21.052;2022-09-06T03:10:59;8.73;;;1.60;;
19171;SDS011;9718;52.200;21.052;2022-09-06T03:13:26;3.93;;;1.90;;
19171;SDS011;9718;52.200;21.052;2022-09-06T03:15:57;5.40;;;1.70;;
19171;SDS011;9718;52.200;21.052;2022-09-06T03:18:26;4.73;;;1.70;;
19171;SDS011;9718;52.200;21.052;2022-09-06T03:20:55;4.20;;;2.20;;
19171;SDS011;9718;52.200;21.052;2022-09-06T03:23:23;3.33;;;1.63;;
19171;SDS011;9718;52.200;21.052;2022-09-06T03:25:51;2.77;;;1.57;;
19171;SDS011;9718;52.200;21.052;2022-09-06T03:28:20;3.87;;;1.80;;
19171;SDS011;9718;52.200;21.052;2022-09-06T03:30:48;7.13;;;2.40;;
19171;SDS011;9718;52.200;21.052;2022-09-06T03:33:17;4.40;;;1.53;;
19171;SDS011;9718;52.200;21.052;2022-09-06T03:35:52;3.07;;;1.43;;
19171;SDS011;9718;52.200;21.052;2022-09-06T03:38:21;3.63;;;1.87;;
19171;SDS011;9718;52.200;21.052;2022-09-06T03:40:49;6.73;;;1.80;;
19171;SDS011;9718;52.200;21.052;2022-09-06T03:43:18;3.17;;;1.83;;
19171;SDS011;9718;52.200;21.052;2022-09-06T03:45:47;4.33;;;2.00;;
19171;SDS011;9718;52.200;21.052;2022-09-06T03:48:16;5.17;;;1.70;;
19171;SDS011;9718;52.200;21.052;2022-09-06T03:50:44;2.30;;;1.27;;
19171;SDS011;9718;52.200;21.052;2022-09-06T03:53:12;2.63;;;1.73;;
19171;SDS011;9718;52.200;21.052;2022-09-06T03:55:44;4.10;;;1.50;;
19171;SDS011;9718;52.200;21.052;2022-09-06T03:58:12;2.93;;;1.60;;
19171;SDS011;9718;52.200;21.052;2022-09-06T04:00:40;2.07;;;1.40;;
19171;SDS011;9718;52.200;21.052;2022-09-06T04:03:07;3.37;;;2.03;;
19171;SDS011;9718;52.200;21.052;2022-09-06T04:05:34;2.90;;;1.70;;
19171;SDS011;9718;52.200;21.052;2022-09-06T04:08:02;2.13;;;1.60;;
19171;SDS011;9718;52.200;21.052;2022-09-06T04:10:29;4.20;;;1.40;;
19171;SDS011;9718;52.200;21.052;2022-09-06T04:12:57;4.40;;;1.47;;
19171;SDS011;9718;52.200;21.052;2022-09-06T04:15:24;3.23;;;1.53;;
19171;SDS011;9718;52.200;21.052;2022-09-06T04:17:51;3.30;;;1.60;;
19171;SDS011;9718;52.200;21.052;2022-09-06T04:20:18;2.43;;;1.33;;
19171;SDS011;9718;52.200;21.052;2022-09-06T04:22:45;1.93;;;1.50;;
19171;SDS011;9718;52.200;21.052;2022-09-06T04:25:12;2.70;;;1.60;;
19171;SDS011;9718;52.200;21.052;2022-09-06T04:27:39;4.43;;;1.90;;
19171;SDS011;9718;52.200;21.052;2022-09-06T04:30:06;2.10;;;1.43;;
19171;SDS011;9718;52.200;21.052;2022-09-06T04:32:34;6.43;;;2.10;;
19171;SDS011;9718;52.200;21.052;2022-09-06T04:35:01;3.30;;;1.57;;
19171;SDS011;9718;52.200;21.052;2022-09-06T04:37:28;3.17;;;1.97;;
19171;SDS011;9718;52.200;21.052;2022-09-06T04:39:55;8.30;;;2.33;;
19171;SDS011;9718;52.200;21.052;2022-09-06T04:42:22;8.87;;;1.90;;
19171;SDS011;9718;52.200;21.052;2022-09-06T04:44:49;5.77;;;2.23;;
19171;SDS011;9718;52.200;21.052;2022-09-06T04:47:16;6.10;;;1.87;;
19171;SDS011;9718;52.200;21.052;2022-09-06T04:49:44;8.07;;;2.80;;
19171;SDS011;9718;52.200;21.052;2022-09-06T04:52:13;6.77;;;2.23;;
19171;SDS011;9718;52.200;21.052;2022-09-06T04:54:41;6.13;;;1.80;;
19171;SDS011;9718;52.200;21.052;2022-09-06T04:57:08;7.00;;;1.97;;
19171;SDS011;9718;52.200;21.052;2022-09-06T04:59:35;7.20;;;2.00;;
19171;SDS011;9718;52.200;21.052;2022-09-06T05:02:02;12.57;;;3.20;;
19171;SDS011;9718;52.200;21.052;2022-09-06T05:04:30;3.50;;;1.97;;
19171;SDS011;9718;52.200;21.052;2022-09-06T05:07:04;7.30;;;1.73;;
19171;SDS011;9718;52.200;21.052;2022-09-06T05:09:32;9.63;;;2.53;;
19171;SDS011;9718;52.200;21.052;2022-09-06T05:11:59;10.37;;;2.33;;
19171;SDS011;9718;52.200;21.052;2022-09-06T05:14:27;4.17;;;1.53;;
19171;SDS011;9718;52.200;21.052;2022-09-06T05:16:55;4.77;;;2.40;;
19171;SDS011;9718;52.200;21.052;2022-09-06T05:19:22;11.23;;;4.63;;
19171;SDS011;9718;52.200;21.052;2022-09-06T05:21:49;6.27;;;2.00;;
19171;SDS011;9718;52.200;21.052;2022-09-06T05:24:17;7.33;;;2.07;;
19171;SDS011;9718;52.200;21.052;2022-09-06T05:26:46;8.87;;;4.70;;
19171;SDS011;9718;52.200;21.052;2022-09-06T05:29:13;7.60;;;2.40;;
19171;SDS011;9718;52.200;21.052;2022-09-06T05:31:40;7.43;;;2.50;;
19171;SDS011;9718;52.200;21.052;2022-09-06T05:34:07;3.50;;;2.13;;
19171;SDS011;9718;52.200;21.052;2022-09-06T05:36:36;8.17;;;2.20;;
19171;SDS011;9718;52.200;21.052;2022-09-06T05:39:04;9.53;;;4.20;;
19171;SDS011;9718;52.200;21.052;2022-09-06T05:41:31;11.00;;;2.27;;
19171;SDS011;9718;52.200;21.052;2022-09-06T05:44:04;7.27;;;2.13;;
19171;SDS011;9718;52.200;21.052;2022-09-06T05:46:42;3.57;;;1.67;;
19171;SDS011;9718;52.200;21.052;2022-09-06T05:49:11;3.70;;;1.73;;
19171;SDS011;9718;52.200;21.052;2022-09-06T05:51:39;6.23;;;1.70;;
19171;SDS011;9718;52.200;21.052;2022-09-06T05:54:06;6.67;;;1.90;;
19171;SDS011;9718;52.200;21.052;2022-09-06T05:56:35;8.90;;;2.73;;
19171;SDS011;9718;52.200;21.052;2022-09-06T05:59:03;7.93;;;2.40;;
19171;SDS011;9718;52.200;21.052;2022-09-06T06:01:51;5.67;;;2.33;;
19171;SDS011;9718;52.200;21.052;2022-09-06T06:04:49;9.63;;;2.00;;
19171;SDS011;9718;52.200;21.052;2022-09-06T06:07:17;4.00;;;2.50;;
19171;SDS011;9718;52.200;21.052;2022-09-06T06:09:44;4.90;;;1.70;;
19171;SDS011;9718;52.200;21.052;2022-09-06T06:12:11;8.07;;;2.90;;
19171;SDS011;9718;52.200;21.052;2022-09-06T06:14:38;7.40;;;1.97;;
19171;SDS011;9718;52.200;21.052;2022-09-06T06:17:05;7.23;;;1.90;;
19171;SDS011;9718;52.200;21.052;2022-09-06T06:19:35;7.57;;;2.03;;
19171;SDS011;9718;52.200;21.052;2022-09-06T06:22:23;3.33;;;1.53;;
19171;SDS011;9718;52.200;21.052;2022-09-06T06:25:34;4.53;;;2.20;;
19171;SDS011;9718;52.200;21.052;2022-09-06T06:28:56;8.97;;;2.60;;
19171;SDS011;9718;52.200;21.052;2022-09-06T06:32:07;8.77;;;1.70;;
19171;SDS011;9718;52.200;21.052;2022-09-06T06:34:34;9.97;;;2.67;;
19171;SDS011;9718;52.200;21.052;2022-09-06T06:37:01;8.47;;;1.77;;
19171;SDS011;9718;52.200;21.052;2022-09-06T06:39:28;5.57;;;2.17;;
19171;SDS011;9718;52.200;21.052;2022-09-06T06:41:59;4.83;;;1.70;;
19171;SDS011;9718;52.200;21.052;2022-09-06T06:44:36;11.13;;;2.70;;
19171;SDS011;9718;52.200;21.052;2022-09-06T06:47:03;3.73;;;1.73;;
19171;SDS011;9718;52.200;21.052;2022-09-06T06:49:30;6.10;;;1.70;;
19171;SDS011;9718;52.200;21.052;2022-09-06T06:51:58;8.97;;;1.80;;
19171;SDS011;9718;52.200;21.052;2022-09-06T06:54:25;11.30;;;2.17;;
19171;SDS011;9718;52.200;21.052;2022-09-06T06:56:52;8.27;;;1.33;;
19171;SDS011;9718;52.200;21.052;2022-09-06T06:59:19;5.17;;;1.30;;
19171;SDS011;9718;52.200;21.052;2022-09-06T07:01:46;7.83;;;1.47;;
19171;SDS011;9718;52.200;21.052;2022-09-06T07:04:15;7.33;;;1.47;;
19171;SDS011;9718;52.200;21.052;2022-09-06T07:06:53;4.07;;;1.27;;
19171;SDS011;9718;52.200;21.052;2022-09-06T07:09:41;5.23;;;1.20;;
19171;SDS011;9718;52.200;21.052;2022-09-06T07:12:28;5.33;;;1.00;;
19171;SDS011;9718;52.200;21.052;2022-09-06T07:15:01;4.80;;;1.37;;
19171;SDS011;9718;52.200;21.052;2022-09-06T07:17:41;9.20;;;1.43;;
19171;SDS011;9718;52.200;21.052;2022-09-06T07:20:09;7.77;;;1.50;;
19171;SDS011;9718;52.200;21.052;2022-09-06T07:22:42;5.57;;;1.70;;
19171;SDS011;9718;52.200;21.052;2022-09-06T07:25:09;2.40;;;1.10;;
19171;SDS011;9718;52.200;21.052;2022-09-06T07:27:43;5.13;;;0.97;;
19171;SDS011;9718;52.200;21.052;2022-09-06T07:30:16;6.83;;;1.20;;
19171;SDS011;9718;52.200;21.052;2022-09-06T07:32:45;3.00;;;0.77;;
19171;SDS011;9718;52.200;21.052;2022-09-06T07:35:26;2.43;;;1.30;;
19171;SDS011;9718;52.200;21.052;2022-09-06T07:37:54;4.47;;;0.90;;
19171;SDS011;9718;52.200;21.052;2022-09-06T07:40:23;3.50;;;1.43;;
19171;SDS011;9718;52.200;21.052;2022-09-06T07:42:54;7.63;;;1.47;;
19171;SDS011;9718;52.200;21.052;2022-09-06T07:45:23;5.10;;;2.17;;
19171;SDS011;9718;52.200;21.052;2022-09-06T07:47:56;6.70;;;1.00;;
19171;SDS011;9718;52.200;21.052;2022-09-06T07:50:26;4.00;;;0.90;;
19171;SDS011;9718;52.200;21.052;2022-09-06T07:56:57;5.90;;;1.17;;
19171;SDS011;9718;52.200;21.052;2022-09-06T07:59:24;2.43;;;1.10;;
19171;SDS011;9718;52.200;21.052;2022-09-06T08:01:52;2.67;;;1.13;;
19171;SDS011;9718;52.200;21.052;2022-09-06T08:04:20;4.93;;;1.30;;
19171;SDS011;9718;52.200;21.052;2022-09-06T08:06:47;1.00;;;0.70;;
19171;SDS011;9718;52.200;21.052;2022-09-06T08:09:37;2.27;;;0.83;;
19171;SDS011;9718;52.200;21.052;2022-09-06T08:12:04;2.63;;;0.90;;
19171;SDS011;9718;52.200;21.052;2022-09-06T08:14:33;4.30;;;1.00;;
19171;SDS011;9718;52.200;21.052;2022-09-06T08:17:08;2.83;;;0.70;;
19171;SDS011;9718;52.200;21.052;2022-09-06T08:19:35;3.63;;;0.80;;
19171;SDS011;9718;52.200;21.052;2022-09-06T08:22:02;2.47;;;0.80;;
19171;SDS011;9718;52.200;21.052;2022-09-06T08:24:29;3.80;;;0.80;;
19171;SDS011;9718;52.200;21.052;2022-09-06T08:26:58;1.63;;;0.50;;
19171;SDS011;9718;52.200;21.052;2022-09-06T08:29:25;5.70;;;1.50;;
19171;SDS011;9718;52.200;21.052;2022-09-06T08:32:07;2.23;;;0.67;;
19171;SDS011;9718;52.200;21.052;2022-09-06T08:34:47;1.00;;;0.60;;
19171;SDS011;9718;52.200;21.052;2022-09-06T08:37:14;3.93;;;1.30;;
19171;SDS011;9718;52.200;21.052;2022-09-06T08:39:41;3.20;;;2.00;;
19171;SDS011;9718;52.200;21.052;2022-09-06T09:18:38;2.93;;;0.67;;
19171;SDS011;9718;52.200;21.052;2022-09-06T09:21:40;1.63;;;1.20;;
19171;SDS011;9718;52.200;21.052;2022-09-06T09:24:22;1.23;;;0.70;;
19171;SDS011;9718;52.200;21.052;2022-09-06T09:27:24;1.90;;;0.80;;
19171;SDS011;9718;52.200;21.052;2022-09-06T09:30:47;1.43;;;0.80;;
19171;SDS011;9718;52.200;21.052;2022-09-06T09:33:50;3.60;;;0.70;;
19171;SDS011;9718;52.200;21.052;2022-09-06T09:36:34;2.20;;;0.53;;
19171;SDS011;9718;52.200;21.052;2022-09-06T09:46:44;6.67;;;1.20;;
19171;SDS011;9718;52.200;21.052;2022-09-06T09:49:13;10.33;;;5.20;;
19171;SDS011;9718;52.200;21.052;2022-09-06T09:54:42;1.40;;;0.73;;
19171;SDS011;9718;52.200;21.052;2022-09-06T09:57:18;1.23;;;0.60;;
19171;SDS011;9718;52.200;21.052;2022-09-06T10:11:51;1.20;;;0.50;;
19171;SDS011;9718;52.200;21.052;2022-09-06T10:14:24;1.00;;;0.70;;
19171;SDS011;9718;52.200;21.052;2022-09-06T10:16:57;1.67;;;0.60;;
19171;SDS011;9718;52.200;21.052;2022-09-06T10:19:39;4.10;;;0.90;;
19171;SDS011;9718;52.200;21.052;2022-09-06T10:27:33;1.70;;;0.40;;
19171;SDS011;9718;52.200;21.052;2022-09-06T10:36:16;1.03;;;0.30;;
19171;SDS011;9718;52.200;21.052;2022-09-06T11:29:29;19.07;;;11.43;;
19171;SDS011;9718;52.200;21.052;2022-09-06T11:32:02;2.47;;;0.53;;
19171;SDS011;9718;52.200;21.052;2022-09-06T11:34:50;0.50;;;0.50;;
19171;SDS011;9718;52.200;21.052;2022-09-06T11:37:27;3.13;;;0.80;;
19171;SDS011;9718;52.200;21.052;2022-09-06T11:40:05;4.80;;;0.80;;
19171;SDS011;9718;52.200;21.052;2022-09-06T11:51:05;5.18;;;0.50;;
19171;SDS011;9718;52.200;21.052;2022-09-06T11:54:11;1.70;;;0.80;;
19171;SDS011;9718;52.200;21.052;2022-09-06T11:56:38;0.70;;;0.63;;
19171;SDS011;9718;52.200;21.052;2022-09-06T12:07:33;0.40;;;0.30;;
19171;SDS011;9718;52.200;21.052;2022-09-06T12:12:56;2.13;;;0.80;;
19171;SDS011;9718;52.200;21.052;2022-09-06T12:15:25;0.90;;;0.80;;
19171;SDS011;9718;52.200;21.052;2022-09-06T12:17:54;2.78;;;0.50;;
19171;SDS011;9718;52.200;21.052;2022-09-06T12:26:09;0.60;;;0.60;;
19171;SDS011;9718;52.200;21.052;2022-09-06T12:28:39;3.63;;;1.20;;
19171;SDS011;9718;52.200;21.052;2022-09-06T12:31:23;0.90;;;0.70;;
19171;SDS011;9718;52.200;21.052;2022-09-06T12:33:55;0.57;;;0.37;;
19171;SDS011;9718;52.200;21.052;2022-09-06T12:36:24;1.17;;;0.60;;
19171;SDS011;9718;52.200;21.052;2022-09-06T12:39:30;8.30;;;0.60;;
19171;SDS011;9718;52.200;21.052;2022-09-06T12:52:24;2.10;;;0.50;;
19171;SDS011;9718;52.200;21.052;2022-09-06T12:55:12;2.90;;;0.87;;
19171;SDS011;9718;52.200;21.052;2022-09-06T12:57:48;2.37;;;0.80;;
19171;SDS011;9718;52.200;21.052;2022-09-06T13:00:21;0.50;;;0.47;;
19171;SDS011;9718;52.200;21.052;2022-09-06T13:03:38;0.33;;;0.33;;
19171;SDS011;9718;52.200;21.052;2022-09-06T13:51:49;2.13;;;0.40;;
19171;SDS011;9718;52.200;21.052;2022-09-06T13:54:18;3.60;;;0.77;;
19171;SDS011;9718;52.200;21.052;2022-09-06T13:56:45;3.57;;;0.67;;
19171;SDS011;9718;52.200;21.052;2022-09-06T13:59:14;1.80;;;0.43;;
19171;SDS011;9718;52.200;21.052;2022-09-06T14:01:43;7.07;;;0.50;;
19171;SDS011;9718;52.200;21.052;2022-09-06T14:04:13;1.80;;;0.50;;
19171;SDS011;9718;52.200;21.052;2022-09-06T14:06:46;0.47;;;0.40;;
19171;SDS011;9718;52.200;21.052;2022-09-06T14:09:15;1.27;;;0.50;;
19171;SDS011;9718;52.200;21.052;2022-09-06T14:11:43;1.00;;;0.40;;
19171;SDS011;9718;52.200;21.052;2022-09-06T14:14:14;0.33;;;0.17;;
19171;SDS011;9718;52.200;21.052;2022-09-06T14:16:44;1.53;;;0.63;;
19171;SDS011;9718;52.200;21.052;2022-09-06T14:19:13;1.87;;;0.60;;
19171;SDS011;9718;52.200;21.052;2022-09-06T14:21:41;1.33;;;0.60;;
19171;SDS011;9718;52.200;21.052;2022-09-06T14:24:09;2.77;;;0.40;;
19171;SDS011;9718;52.200;21.052;2022-09-06T14:26:36;0.90;;;0.30;;
19171;SDS011;9718;52.200;21.052;2022-09-06T14:29:04;0.90;;;0.40;;
19171;SDS011;9718;52.200;21.052;2022-09-06T14:31:32;1.40;;;0.50;;
19171;SDS011;9718;52.200;21.052;2022-09-06T14:33:59;0.50;;;0.40;;
19171;SDS011;9718;52.200;21.052;2022-09-06T14:36:29;1.10;;;0.73;;
19171;SDS011;9718;52.200;21.052;2022-09-06T14:38:58;1.50;;;0.30;;
19171;SDS011;9718;52.200;21.052;2022-09-06T14:41:26;2.27;;;0.50;;
19171;SDS011;9718;52.200;21.052;2022-09-06T14:43:55;2.57;;;0.60;;
19171;SDS011;9718;52.200;21.052;2022-09-06T14:46:25;0.40;;;0.40;;
19171;SDS011;9718;52.200;21.052;2022-09-06T14:49:00;1.20;;;0.20;;
19171;SDS011;9718;52.200;21.052;2022-09-06T14:51:33;2.93;;;0.80;;
19171;SDS011;9718;52.200;21.052;2022-09-06T14:54:04;1.77;;;0.70;;
19171;SDS011;9718;52.200;21.052;2022-09-06T14:56:37;0.97;;;0.47;;
19171;SDS011;9718;52.200;21.052;2022-09-06T14:59:06;3.40;;;0.70;;
19171;SDS011;9718;52.200;21.052;2022-09-06T15:01:34;1.77;;;0.57;;
19171;SDS011;9718;52.200;21.052;2022-09-06T15:04:06;7.80;;;0.87;;
19171;SDS011;9718;52.200;21.052;2022-09-06T15:06:35;1.40;;;0.60;;
19171;SDS011;9718;52.200;21.052;2022-09-06T15:09:05;0.83;;;0.40;;
19171;SDS011;9718;52.200;21.052;2022-09-06T15:14:03;4.17;;;0.50;;
19171;SDS011;9718;52.200;21.052;2022-09-06T15:16:37;1.30;;;0.70;;
19171;SDS011;9718;52.200;21.052;2022-09-06T15:19:05;3.87;;;0.80;;
19171;SDS011;9718;52.200;21.052;2022-09-06T15:21:33;2.73;;;0.80;;
19171;SDS011;9718;52.200;21.052;2022-09-06T15:24:00;1.57;;;0.60;;
19171;SDS011;9718;52.200;21.052;2022-09-06T15:26:28;1.97;;;0.40;;
19171;SDS011;9718;52.200;21.052;2022-09-06T15:28:56;1.20;;;0.50;;
19171;SDS011;9718;52.200;21.052;2022-09-06T15:31:23;1.70;;;0.47;;
19171;SDS011;9718;52.200;21.052;2022-09-06T15:33:53;0.97;;;0.40;;
19171;SDS011;9718;52.200;21.052;2022-09-06T15:36:20;5.67;;;0.93;;
19171;SDS011;9718;52.200;21.052;2022-09-06T15:38:48;1.20;;;0.50;;
19171;SDS011;9718;52.200;21.052;2022-09-06T15:41:19;4.17;;;0.77;;
19171;SDS011;9718;52.200;21.052;2022-09-06T15:43:51;4.63;;;0.73;;
19171;SDS011;9718;52.200;21.052;2022-09-06T15:46:37;3.63;;;0.63;;
19171;SDS011;9718;52.200;21.052;2022-09-06T15:49:15;1.30;;;0.50;;
19171;SDS011;9718;52.200;21.052;2022-09-06T15:52:03;0.50;;;0.50;;
19171;SDS011;9718;52.200;21.052;2022-09-06T15:54:32;1.47;;;0.60;;
19171;SDS011;9718;52.200;21.052;2022-09-06T15:57:19;3.30;;;0.77;;
19171;SDS011;9718;52.200;21.052;2022-09-06T15:59:47;3.87;;;0.60;;
19171;SDS011;9718;52.200;21.052;2022-09-06T16:02:15;1.50;;;0.60;;
19171;SDS011;9718;52.200;21.052;2022-09-06T16:04:43;3.90;;;0.60;;
19171;SDS011;9718;52.200;21.052;2022-09-06T16:07:11;2.10;;;0.77;;
19171;SDS011;9718;52.200;21.052;2022-09-06T16:09:39;6.10;;;0.90;;
19171;SDS011;9718;52.200;21.052;2022-09-06T16:12:06;4.13;;;0.97;;
19171;SDS011;9718;52.200;21.052;2022-09-06T16:14:35;1.97;;;0.63;;
19171;SDS011;9718;52.200;21.052;2022-09-06T16:17:04;6.63;;;0.90;;
19171;SDS011;9718;52.200;21.052;2022-09-06T16:19:31;4.90;;;0.90;;
19171;SDS011;9718;52.200;21.052;2022-09-06T16:21:59;2.07;;;1.10;;
19171;SDS011;9718;52.200;21.052;2022-09-06T16:24:26;4.30;;;1.10;;
19171;SDS011;9718;52.200;21.052;2022-09-06T16:26:54;4.43;;;0.93;;
19171;SDS011;9718;52.200;21.052;2022-09-06T16:29:22;2.20;;;0.70;;
19171;SDS011;9718;52.200;21.052;2022-09-06T16:31:53;2.33;;;0.60;;
19171;SDS011;9718;52.200;21.052;2022-09-06T16:34:26;3.30;;;0.70;;
19171;SDS011;9718;52.200;21.052;2022-09-06T16:36:53;6.13;;;1.47;;
19171;SDS011;9718;52.200;21.052;2022-09-06T16:39:22;2.90;;;0.70;;
19171;SDS011;9718;52.200;21.052;2022-09-06T16:41:50;5.00;;;1.27;;
19171;SDS011;9718;52.200;21.052;2022-09-06T16:44:17;9.60;;;1.00;;
19171;SDS011;9718;52.200;21.052;2022-09-06T16:46:46;4.90;;;1.10;;
19171;SDS011;9718;52.200;21.052;2022-09-06T16:49:16;7.17;;;1.50;;
19171;SDS011;9718;52.200;21.052;2022-09-06T16:51:45;6.37;;;2.20;;
19171;SDS011;9718;52.200;21.052;2022-09-06T16:54:14;5.10;;;2.00;;
19171;SDS011;9718;52.200;21.052;2022-09-06T16:56:43;4.63;;;1.30;;
19171;SDS011;9718;52.200;21.052;2022-09-06T16:59:10;8.87;;;1.10;;
19171;SDS011;9718;52.200;21.052;2022-09-06T17:01:38;8.10;;;1.70;;
19171;SDS011;9718;52.200;21.052;2022-09-06T17:04:11;4.77;;;1.17;;
19171;SDS011;9718;52.200;21.052;2022-09-06T17:06:39;5.27;;;1.07;;
19171;SDS011;9718;52.200;21.052;2022-09-06T17:09:16;1.77;;;1.13;;
19171;SDS011;9718;52.200;21.052;2022-09-06T17:11:45;5.27;;;1.30;;
19171;SDS011;9718;52.200;21.052;2022-09-06T17:14:16;5.83;;;1.30;;
19171;SDS011;9718;52.200;21.052;2022-09-06T17:16:44;5.53;;;1.63;;
19171;SDS011;9718;52.200;21.052;2022-09-06T17:19:36;5.00;;;1.57;;
19171;SDS011;9718;52.200;21.052;2022-09-06T17:22:07;16.33;;;2.80;;
19171;SDS011;9718;52.200;21.052;2022-09-06T17:24:36;6.10;;;1.90;;
19171;SDS011;9718;52.200;21.052;2022-09-06T17:27:05;4.43;;;1.30;;
19171;SDS011;9718;52.200;21.052;2022-09-06T17:29:33;4.03;;;1.57;;
19171;SDS011;9718;52.200;21.052;2022-09-06T17:32:02;3.50;;;1.30;;
19171;SDS011;9718;52.200;21.052;2022-09-06T17:34:30;7.60;;;1.73;;
19171;SDS011;9718;52.200;21.052;2022-09-06T17:36:58;11.30;;;2.13;;
19171;SDS011;9718;52.200;21.052;2022-09-06T17:39:26;7.50;;;2.30;;
19171;SDS011;9718;52.200;21.052;2022-09-06T17:41:53;7.23;;;2.30;;
19171;SDS011;9718;52.200;21.052;2022-09-06T17:44:22;6.07;;;2.57;;
19171;SDS011;9718;52.200;21.052;2022-09-06T17:46:51;9.07;;;3.90;;
19171;SDS011;9718;52.200;21.052;2022-09-06T17:49:40;14.27;;;6.17;;
19171;SDS011;9718;52.200;21.052;2022-09-06T17:52:09;12.97;;;5.60;;
19171;SDS011;9718;52.200;21.052;2022-09-06T17:54:36;17.23;;;7.27;;
19171;SDS011;9718;52.200;21.052;2022-09-06T17:57:04;20.00;;;6.03;;
19171;SDS011;9718;52.200;21.052;2022-09-06T17:59:32;10.73;;;4.13;;
19171;SDS011;9718;52.200;21.052;2022-09-06T18:02:02;11.90;;;3.80;;
19171;SDS011;9718;52.200;21.052;2022-09-06T18:04:30;16.57;;;4.47;;
19171;SDS011;9718;52.200;21.052;2022-09-06T18:06:58;13.00;;;3.90;;
19171;SDS011;9718;52.200;21.052;2022-09-06T18:09:26;11.30;;;3.83;;
19171;SDS011;9718;52.200;21.052;2022-09-06T18:11:55;15.13;;;4.33;;
19171;SDS011;9718;52.200;21.052;2022-09-06T18:14:24;14.20;;;5.20;;
19171;SDS011;9718;52.200;21.052;2022-09-06T18:16:54;14.47;;;5.40;;
19171;SDS011;9718;52.200;21.052;2022-09-06T18:19:22;9.00;;;4.03;;
19171;SDS011;9718;52.200;21.052;2022-09-06T18:21:49;12.43;;;4.37;;
19171;SDS011;9718;52.200;21.052;2022-09-06T18:24:18;13.30;;;3.70;;
19171;SDS011;9718;52.200;21.052;2022-09-06T18:27:01;14.40;;;3.27;;
19171;SDS011;9718;52.200;21.052;2022-09-06T18:29:28;9.67;;;3.27;;
19171;SDS011;9718;52.200;21.052;2022-09-06T18:31:59;13.33;;;3.83;;
19171;SDS011;9718;52.200;21.052;2022-09-06T18:34:34;19.90;;;4.00;;
19171;SDS011;9718;52.200;21.052;2022-09-06T18:37:16;12.57;;;3.70;;
19171;SDS011;9718;52.200;21.052;2022-09-06T18:39:45;16.90;;;3.47;;
19171;SDS011;9718;52.200;21.052;2022-09-06T18:42:27;9.23;;;4.40;;
19171;SDS011;9718;52.200;21.052;2022-09-06T18:45:10;10.90;;;3.50;;
19171;SDS011;9718;52.200;21.052;2022-09-06T18:47:37;12.97;;;3.90;;
19171;SDS011;9718;52.200;21.052;2022-09-06T18:50:05;14.30;;;4.23;;
19171;SDS011;9718;52.200;21.052;2022-09-06T18:52:33;18.47;;;4.10;;
19171;SDS011;9718;52.200;21.052;2022-09-06T18:55:01;16.10;;;4.47;;
19171;SDS011;9718;52.200;21.052;2022-09-06T18:57:29;18.53;;;4.37;;
19171;SDS011;9718;52.200;21.052;2022-09-06T18:59:56;16.97;;;4.63;;
19171;SDS011;9718;52.200;21.052;2022-09-06T19:02:23;14.23;;;4.67;;
19171;SDS011;9718;52.200;21.052;2022-09-06T19:04:53;15.77;;;5.40;;
19171;SDS011;9718;52.200;21.052;2022-09-06T19:07:21;13.10;;;5.13;;
19171;SDS011;9718;52.200;21.052;2022-09-06T19:09:49;15.23;;;5.03;;